createdAt,value
2019-01-13T00:00:24.628Z,5.00
2019-01-13T00:03:13.094Z,5.00
2019-01-13T00:06:00.656Z,5.00
2019-01-13T00:08:48.460Z,5.10
2019-01-13T00:11:36.368Z,5.10
2019-01-13T00:17:11.781Z,5.20
2019-01-13T00:19:59.369Z,5.20
2019-01-13T00:22:47.312Z,5.30
2019-01-13T00:25:35.299Z,5.20
2019-01-13T00:28:22.948Z,5.30
2019-01-13T00:31:10.728Z,5.30
2019-01-13T00:33:58.430Z,5.30
2019-01-13T00:36:46.046Z,5.40
2019-01-13T00:39:33.660Z,5.40
2019-01-13T00:42:21.614Z,5.40
2019-01-13T00:45:11.400Z,5.40
2019-01-13T00:47:59.083Z,5.40
2019-01-13T00:50:46.728Z,5.40
2019-01-13T00:53:34.397Z,5.50
2019-01-13T00:56:22.344Z,5.50
2019-01-13T00:59:11.099Z,5.50
2019-01-13T01:01:59.980Z,5.50
2019-01-13T01:04:47.944Z,5.60
2019-01-13T01:07:35.784Z,5.60
2019-01-13T01:10:23.450Z,5.70
2019-01-13T01:13:11.102Z,5.70
2019-01-13T01:15:58.563Z,5.70
2019-01-13T01:18:46.668Z,5.70
2019-01-13T01:21:34.612Z,5.70
2019-01-13T01:24:22.602Z,5.70
2019-01-13T01:27:10.404Z,5.70
2019-01-13T01:29:58.308Z,5.70
2019-01-13T01:32:46.383Z,5.70
2019-01-13T01:35:34.297Z,5.80
2019-01-13T01:38:21.950Z,5.80
2019-01-13T01:41:09.580Z,5.80
2019-01-13T01:43:57.253Z,5.90
2019-01-13T01:46:45.168Z,5.90
2019-01-13T01:49:32.889Z,5.90
2019-01-13T01:52:20.827Z,5.90
2019-01-13T01:55:11.496Z,5.90
2019-01-13T01:57:59.334Z,6.00
2019-01-13T02:00:47.024Z,6.00
2019-01-13T02:03:34.765Z,6.00
2019-01-13T02:06:34.295Z,5.90
2019-01-13T02:09:22.119Z,6.00
2019-01-13T02:12:09.753Z,6.00
2019-01-13T02:14:57.590Z,6.00
2019-01-13T02:17:45.585Z,6.00
2019-01-13T02:20:33.514Z,6.00
2019-01-13T02:23:21.362Z,6.00
2019-01-13T02:26:08.946Z,6.00
2019-01-13T02:28:56.627Z,6.00
2019-01-13T02:31:44.403Z,6.00
2019-01-13T02:34:32.399Z,6.00
2019-01-13T02:37:20.286Z,6.00
2019-01-13T02:40:13.516Z,6.00
2019-01-13T02:43:01.561Z,6.00
2019-01-13T02:45:49.487Z,5.90
2019-01-13T02:48:37.511Z,5.90
2019-01-13T02:51:25.362Z,5.90
2019-01-13T02:54:13.115Z,5.80
2019-01-13T02:57:00.897Z,5.80
2019-01-13T02:59:48.596Z,5.80
2019-01-13T03:02:36.604Z,5.80
2019-01-13T03:05:24.325Z,5.80
2019-01-13T03:08:12.230Z,5.80
2019-01-13T03:10:59.885Z,5.80
2019-01-13T03:13:47.641Z,5.90
2019-01-13T03:16:35.589Z,5.90
2019-01-13T03:19:23.485Z,6.00
2019-01-13T03:22:11.495Z,6.00
2019-01-13T03:24:59.317Z,6.00
2019-01-13T03:27:47.098Z,6.00
2019-01-13T03:30:34.950Z,6.00
2019-01-13T03:33:22.521Z,6.00
2019-01-13T03:36:10.430Z,5.90
2019-01-13T03:38:58.241Z,5.90
2019-01-13T03:41:46.103Z,5.90
2019-01-13T03:44:34.006Z,5.90
2019-01-13T03:47:22.173Z,6.00
2019-01-13T03:50:18.277Z,6.00
2019-01-13T03:53:06.047Z,6.10
2019-01-13T03:55:53.818Z,6.10
2019-01-13T03:58:41.678Z,6.10
2019-01-13T04:01:29.318Z,6.20
2019-01-13T04:04:17.337Z,6.20
2019-01-13T04:07:05.026Z,6.20
2019-01-13T04:09:52.932Z,6.30
2019-01-13T04:12:40.821Z,6.30
2019-01-13T04:15:34.887Z,6.30
2019-01-13T04:18:22.833Z,6.30
2019-01-13T04:21:10.493Z,6.30
2019-01-13T04:23:58.450Z,6.30
2019-01-13T04:26:46.440Z,6.30
2019-01-13T04:29:34.475Z,6.40
2019-01-13T04:32:22.357Z,6.40
2019-01-13T04:35:10.152Z,6.40
2019-01-13T04:37:58.089Z,6.40
2019-01-13T04:40:45.974Z,6.40
2019-01-13T04:43:34.020Z,6.40
2019-01-13T04:46:21.861Z,6.40
2019-01-13T04:49:09.823Z,6.40
2019-01-13T04:51:57.915Z,6.40
2019-01-13T04:54:45.534Z,6.40
2019-01-13T04:57:33.053Z,6.50
2019-01-13T05:00:22.617Z,6.50
2019-01-13T05:03:10.159Z,6.50
2019-01-13T05:05:58.029Z,6.50
2019-01-13T05:08:45.866Z,6.50
2019-01-13T05:11:33.810Z,6.60
2019-01-13T05:14:21.789Z,6.60
2019-01-13T05:17:09.546Z,6.60
2019-01-13T05:19:57.193Z,6.60
2019-01-13T05:22:45.141Z,6.60
2019-01-13T05:25:33.125Z,6.60
2019-01-13T05:28:20.972Z,6.60
2019-01-13T05:31:08.911Z,6.60
2019-01-13T05:33:56.733Z,6.50
2019-01-13T05:36:44.749Z,6.50
2019-01-13T05:39:32.553Z,6.50
2019-01-13T05:42:20.106Z,6.50
2019-01-13T05:45:10.698Z,6.60
2019-01-13T05:47:58.394Z,6.60
2019-01-13T05:50:46.112Z,6.60
2019-01-13T05:53:33.721Z,6.60
2019-01-13T05:56:21.600Z,6.70
2019-01-13T05:59:09.569Z,6.70
2019-01-13T06:01:57.465Z,6.70
2019-01-13T06:04:45.089Z,6.60
2019-01-13T06:07:32.804Z,6.60
2019-01-13T06:10:21.073Z,6.60
2019-01-13T06:13:08.561Z,6.60
2019-01-13T06:15:56.414Z,6.50
2019-01-13T06:18:44.085Z,6.60
2019-01-13T06:21:32.145Z,6.60
2019-01-13T06:27:08.125Z,6.60
2019-01-13T06:29:55.618Z,6.60
2019-01-13T06:32:43.501Z,6.60
2019-01-13T06:35:33.057Z,6.60
2019-01-13T06:38:20.811Z,6.60
2019-01-13T06:41:17.525Z,6.60
2019-01-13T06:44:05.581Z,6.60
2019-01-13T06:46:53.193Z,6.60
2019-01-13T06:49:40.913Z,6.60
2019-01-13T06:52:28.697Z,6.50
2019-01-13T06:55:16.544Z,6.50
2019-01-13T06:58:04.382Z,6.40
2019-01-13T07:00:52.373Z,6.40
2019-01-13T07:03:40.371Z,6.30
2019-01-13T07:06:28.301Z,6.30
2019-01-13T07:09:16.206Z,6.20
2019-01-13T07:12:04.116Z,6.20
2019-01-13T07:14:52.039Z,6.20
2019-01-13T07:17:39.865Z,6.20
2019-01-13T07:20:27.569Z,6.20
2019-01-13T07:23:15.457Z,6.30
2019-01-13T07:26:03.611Z,6.40
2019-01-13T07:28:51.543Z,6.40
2019-01-13T07:31:39.426Z,6.40
2019-01-13T07:34:27.426Z,6.50
2019-01-13T07:37:15.300Z,6.50
2019-01-13T07:40:04.741Z,6.60
2019-01-13T07:42:52.985Z,6.60
2019-01-13T07:45:40.749Z,6.60
2019-01-13T07:48:28.673Z,6.70
2019-01-13T07:54:04.326Z,6.80
2019-01-13T07:56:52.249Z,6.80
2019-01-13T07:59:40.321Z,6.80
2019-01-13T08:02:28.154Z,6.90
2019-01-13T08:05:16.120Z,6.90
2019-01-13T08:08:03.937Z,6.90
2019-01-13T08:10:51.957Z,6.90
2019-01-13T08:13:39.941Z,6.90
2019-01-13T08:16:28.033Z,6.90
2019-01-13T08:19:15.857Z,6.90
2019-01-13T08:22:03.584Z,6.90
2019-01-13T08:24:51.534Z,6.90
2019-01-13T08:27:38.993Z,7.00
2019-01-13T08:30:26.992Z,7.00
2019-01-13T08:33:15.134Z,7.10
2019-01-13T08:36:02.925Z,7.10
2019-01-13T08:38:50.997Z,7.10
2019-01-13T08:41:38.984Z,7.10
2019-01-13T08:44:26.701Z,7.10
2019-01-13T08:47:14.514Z,7.10
2019-01-13T08:50:02.482Z,7.00
2019-01-13T08:52:50.495Z,7.00
2019-01-13T08:55:38.144Z,7.00
2019-01-13T08:58:26.074Z,7.00
2019-01-13T09:01:13.854Z,7.00
2019-01-13T09:06:49.236Z,7.00
2019-01-13T09:09:37.117Z,6.90
2019-01-13T09:12:24.785Z,6.90
2019-01-13T09:15:15.808Z,6.80
2019-01-13T09:18:04.609Z,6.80
2019-01-13T09:23:39.889Z,6.70
2019-01-13T09:26:27.766Z,6.80
2019-01-13T09:29:15.825Z,6.80
2019-01-13T09:32:03.601Z,6.70
2019-01-13T09:34:51.242Z,6.80
2019-01-13T09:37:39.210Z,6.80
2019-01-13T09:40:28.869Z,6.80
2019-01-13T09:43:16.609Z,6.80
2019-01-13T09:46:04.570Z,6.80
2019-01-13T09:48:52.495Z,6.70
2019-01-13T09:51:40.269Z,6.70
2019-01-13T09:54:28.152Z,6.70
2019-01-13T09:57:15.797Z,6.70
2019-01-13T10:00:06.813Z,6.70
2019-01-13T10:02:54.618Z,6.70
2019-01-13T10:05:42.661Z,6.60
2019-01-13T10:08:30.409Z,6.60
2019-01-13T10:11:18.082Z,6.60
2019-01-13T10:14:06.061Z,6.60
2019-01-13T10:16:53.892Z,6.60
2019-01-13T10:19:41.742Z,6.60
2019-01-13T10:22:29.365Z,6.60
2019-01-13T10:25:17.372Z,6.60
2019-01-13T10:28:05.677Z,6.60
2019-01-13T10:30:53.141Z,6.60
2019-01-13T10:33:40.993Z,6.70
2019-01-13T10:36:29.030Z,6.70
2019-01-13T10:39:16.857Z,6.70
2019-01-13T10:42:04.502Z,6.80
2019-01-13T10:44:51.923Z,6.80
2019-01-13T10:47:39.841Z,6.90
2019-01-13T10:50:28.702Z,6.90
2019-01-13T10:53:16.596Z,7.00
2019-01-13T10:56:04.592Z,7.00
2019-01-13T10:58:52.236Z,7.10
2019-01-13T11:01:40.045Z,7.10
2019-01-13T11:04:30.846Z,7.20
2019-01-13T11:07:18.500Z,7.20
2019-01-13T11:10:12.114Z,7.20
2019-01-13T11:13:00.054Z,7.20
2019-01-13T11:15:47.909Z,7.30
2019-01-13T11:18:35.737Z,7.30
2019-01-13T11:21:23.559Z,7.30
2019-01-13T11:24:11.863Z,7.30
2019-01-13T11:26:59.573Z,7.40
2019-01-13T11:29:47.225Z,7.40
2019-01-13T11:32:38.661Z,7.50
2019-01-13T11:35:26.745Z,7.50
2019-01-13T11:38:19.690Z,7.50
2019-01-13T11:41:07.757Z,7.50
2019-01-13T11:43:55.761Z,7.50
2019-01-13T11:46:45.393Z,7.50
2019-01-13T11:49:33.314Z,7.60
2019-01-13T11:52:33.493Z,7.60
2019-01-13T11:55:21.973Z,7.70
2019-01-13T11:58:09.837Z,7.70
2019-01-13T12:00:57.589Z,7.80
2019-01-13T12:03:45.418Z,7.80
2019-01-13T12:06:33.529Z,7.90
2019-01-13T12:09:21.194Z,7.90
2019-01-13T12:12:09.057Z,7.90
2019-01-13T12:14:57.153Z,8.00
2019-01-13T12:17:45.258Z,8.10
2019-01-13T12:20:32.861Z,8.00
2019-01-13T12:23:20.569Z,8.00
2019-01-13T12:26:08.361Z,7.90
2019-01-13T12:28:57.805Z,7.90
2019-01-13T12:31:45.699Z,7.90
2019-01-13T12:34:33.900Z,7.90
2019-01-13T12:37:21.822Z,7.90
2019-01-13T12:40:15.409Z,7.90
2019-01-13T12:43:03.667Z,7.90
2019-01-13T12:45:51.881Z,7.90
2019-01-13T12:48:39.810Z,8.00
2019-01-13T12:51:27.439Z,8.10
2019-01-13T12:54:15.161Z,6.60
2019-01-13T12:57:03.228Z,8.10
2019-01-13T12:59:51.043Z,8.20
2019-01-13T13:02:38.857Z,8.20
2019-01-13T13:05:26.541Z,8.20
2019-01-13T13:08:14.569Z,8.30
2019-01-13T13:11:02.097Z,8.30
2019-01-13T13:13:50.101Z,8.30
2019-01-13T13:16:38.314Z,8.40
2019-01-13T13:19:26.697Z,8.40
2019-01-13T13:22:15.189Z,8.30
2019-01-13T13:25:03.296Z,8.40
2019-01-13T13:27:51.043Z,8.50
2019-01-13T13:30:39.043Z,8.50
2019-01-13T13:33:26.990Z,8.60
2019-01-13T13:36:14.822Z,8.70
2019-01-13T13:39:04.040Z,8.70
2019-01-13T13:41:51.933Z,8.70
2019-01-13T13:44:39.529Z,8.70
2019-01-13T13:47:27.150Z,8.80
2019-01-13T13:50:17.697Z,8.80
2019-01-13T13:53:05.631Z,8.90
2019-01-13T13:55:53.637Z,8.90
2019-01-13T13:58:41.489Z,8.90
2019-01-13T14:01:29.063Z,8.90
2019-01-13T14:04:17.114Z,8.70
2019-01-13T14:07:04.945Z,8.70
2019-01-13T14:09:52.758Z,8.60
2019-01-13T14:12:40.445Z,8.60
2019-01-13T14:15:28.312Z,8.70
2019-01-13T14:18:15.812Z,8.70
2019-01-13T14:21:04.385Z,8.60
2019-01-13T14:23:52.501Z,8.60
2019-01-13T14:26:40.282Z,8.50
2019-01-13T14:29:28.156Z,8.50
2019-01-13T14:32:15.716Z,8.40
2019-01-13T14:35:05.229Z,8.40
2019-01-13T14:37:53.272Z,8.40
2019-01-13T14:40:41.096Z,8.20
2019-01-13T14:43:28.725Z,8.20
2019-01-13T14:46:16.692Z,8.00
2019-01-13T14:49:04.721Z,8.00
2019-01-13T14:51:52.877Z,7.90
2019-01-13T14:54:40.745Z,7.90
2019-01-13T14:57:28.387Z,7.90
2019-01-13T15:00:19.166Z,7.90
2019-01-13T15:03:07.237Z,7.90
2019-01-13T15:05:54.966Z,7.90
2019-01-13T15:08:43.174Z,7.90
2019-01-13T15:11:30.879Z,7.90
2019-01-13T15:14:18.937Z,7.90
2019-01-13T15:17:06.721Z,7.90
2019-01-13T15:19:54.649Z,7.90
2019-01-13T15:22:42.590Z,7.90
2019-01-13T15:25:30.526Z,7.90
2019-01-13T15:28:18.166Z,7.90
2019-01-13T15:31:05.889Z,7.90
2019-01-13T15:33:53.769Z,7.90
2019-01-13T15:36:41.510Z,7.80
2019-01-13T15:39:29.108Z,7.90
2019-01-13T15:42:17.041Z,7.90
2019-01-13T15:45:08.633Z,7.90
2019-01-13T15:47:56.298Z,7.90
2019-01-13T15:50:44.273Z,7.90
2019-01-13T15:53:31.853Z,7.90
2019-01-13T15:56:19.757Z,7.90
2019-01-13T15:59:07.437Z,7.90
2019-01-13T16:01:55.361Z,7.90
2019-01-13T16:04:43.205Z,8.00
2019-01-13T16:07:30.925Z,8.00
2019-01-13T16:10:21.580Z,8.00
2019-01-13T16:13:09.691Z,8.10
2019-01-13T16:15:57.304Z,8.10
2019-01-13T16:18:45.025Z,8.10
2019-01-13T16:21:32.602Z,8.20
2019-01-13T16:24:20.430Z,8.20
2019-01-13T16:27:08.185Z,8.20
2019-01-13T16:29:56.008Z,8.20
2019-01-13T16:32:43.769Z,8.20
2019-01-13T16:35:31.771Z,8.30
2019-01-13T16:38:19.443Z,8.30
2019-01-13T16:41:07.341Z,8.30
2019-01-13T16:43:55.021Z,8.30
2019-01-13T16:46:43.602Z,8.30
2019-01-13T16:49:31.610Z,8.40
2019-01-13T16:52:19.602Z,8.40
2019-01-13T16:55:10.060Z,8.40
2019-01-13T16:57:57.776Z,8.50
2019-01-13T17:00:45.753Z,8.50
2019-01-13T17:06:33.434Z,8.50
2019-01-13T17:09:21.302Z,8.60
2019-01-13T17:12:08.898Z,8.60
2019-01-13T17:14:56.872Z,8.70
2019-01-13T17:17:44.845Z,8.70
2019-01-13T17:20:32.761Z,8.70
2019-01-13T17:23:20.641Z,8.80
2019-01-13T17:26:08.513Z,8.80
2019-01-13T17:28:56.848Z,8.70
2019-01-13T17:31:44.670Z,8.70
2019-01-13T17:34:35.925Z,8.70
2019-01-13T17:37:22.210Z,8.60
2019-01-13T17:40:13.215Z,8.60
2019-01-13T17:43:01.294Z,8.70
2019-01-13T17:45:49.309Z,8.70
2019-01-13T17:48:37.334Z,8.70
2019-01-13T17:51:25.411Z,8.70
2019-01-13T17:54:13.056Z,8.70
2019-01-13T17:57:00.897Z,8.70
2019-01-13T17:59:48.777Z,8.70
2019-01-13T18:02:36.622Z,8.70
2019-01-13T18:05:24.289Z,8.70
2019-01-13T18:08:12.063Z,8.70
2019-01-13T18:10:59.830Z,8.70
2019-01-13T18:13:47.657Z,8.70
2019-01-13T18:16:35.834Z,8.60
2019-01-13T18:19:23.620Z,8.60
2019-01-13T18:22:11.313Z,8.60
2019-01-13T18:24:59.217Z,8.60
2019-01-13T18:27:47.346Z,8.60
2019-01-13T18:30:34.909Z,8.60
2019-01-13T18:33:22.653Z,8.60
2019-01-13T18:36:10.542Z,8.60
2019-01-13T18:38:58.362Z,8.60
2019-01-13T18:41:45.958Z,8.60
2019-01-13T18:44:33.819Z,8.60
2019-01-13T18:47:21.814Z,8.60
2019-01-13T18:50:12.881Z,8.60
2019-01-13T18:53:04.122Z,8.60
2019-01-13T18:55:52.077Z,8.60
2019-01-13T18:58:40.153Z,8.60
2019-01-13T19:01:28.073Z,8.70
2019-01-13T19:04:16.053Z,8.70
2019-01-13T19:07:03.893Z,8.70
2019-01-13T19:09:51.506Z,8.80
2019-01-13T19:12:39.339Z,8.80
2019-01-13T19:15:27.169Z,8.80
2019-01-13T19:18:15.073Z,8.80
2019-01-13T19:21:03.040Z,8.90
2019-01-13T19:23:51.087Z,8.90
2019-01-13T19:26:39.426Z,8.90
2019-01-13T19:29:27.329Z,9.00
2019-01-13T19:32:15.193Z,9.00
2019-01-13T19:35:04.608Z,9.00
2019-01-13T19:37:52.517Z,9.00
2019-01-13T19:40:40.603Z,9.00
2019-01-13T19:43:28.441Z,9.00
2019-01-13T19:46:16.436Z,9.00
2019-01-13T19:49:04.375Z,9.00
2019-01-13T19:54:39.947Z,9.00
2019-01-13T19:57:27.889Z,9.00
2019-01-13T20:00:30.915Z,8.90
2019-01-13T20:03:18.613Z,8.80
2019-01-13T20:06:06.277Z,8.70
2019-01-13T20:08:53.977Z,8.60
2019-01-13T20:11:41.820Z,8.60
2019-01-13T20:14:31.007Z,8.50
2019-01-13T20:17:18.471Z,8.40
2019-01-13T20:20:09.499Z,8.40
2019-01-13T20:22:57.450Z,8.40
2019-01-13T20:25:45.626Z,8.40
2019-01-13T20:28:33.666Z,8.40
2019-01-13T20:31:21.422Z,8.40
2019-01-13T20:34:09.347Z,8.40
2019-01-13T20:36:57.416Z,8.30
2019-01-13T20:39:45.398Z,8.30
2019-01-13T20:42:32.989Z,8.30
2019-01-13T20:45:32.962Z,8.30
2019-01-13T20:48:20.573Z,8.30
2019-01-13T20:51:08.519Z,8.30
2019-01-13T20:53:56.404Z,8.30
2019-01-13T20:56:44.388Z,8.20
2019-01-13T20:59:32.040Z,8.20
2019-01-13T21:02:19.624Z,8.10
2019-01-13T21:05:07.689Z,8.00
2019-01-13T21:07:56.151Z,7.90
2019-01-13T21:10:43.658Z,7.90
2019-01-13T21:13:31.514Z,7.90
2019-01-13T21:16:19.559Z,8.00
2019-01-13T21:19:07.311Z,7.90
2019-01-13T21:21:55.150Z,7.90
2019-01-13T21:24:42.937Z,7.90
2019-01-13T21:27:31.253Z,7.90
2019-01-13T21:30:24.521Z,7.90
2019-01-13T21:33:12.630Z,7.90
2019-01-13T21:36:00.479Z,7.90
2019-01-13T21:38:48.362Z,7.90
2019-01-13T21:41:36.116Z,8.00
2019-01-13T21:44:23.901Z,8.00
2019-01-13T21:47:11.729Z,8.00
2019-01-13T21:49:59.636Z,8.00
2019-01-13T21:52:47.688Z,8.10
2019-01-13T21:55:35.651Z,8.10
2019-01-13T21:58:23.499Z,8.10
2019-01-13T22:01:11.390Z,8.10
2019-01-13T22:03:59.304Z,8.10
2019-01-13T22:06:47.430Z,8.10
2019-01-13T22:09:35.049Z,8.10
2019-01-13T22:12:22.676Z,8.10
2019-01-13T22:15:12.976Z,8.20
2019-01-13T22:18:00.861Z,8.20
2019-01-13T22:20:48.561Z,8.20
2019-01-13T22:23:36.193Z,8.20
2019-01-13T22:26:23.970Z,8.10
2019-01-13T22:29:12.117Z,8.10
2019-01-13T22:31:59.773Z,8.10
2019-01-13T22:34:47.434Z,8.00
2019-01-13T22:37:35.134Z,7.90
2019-01-13T22:40:23.149Z,7.90
2019-01-13T22:43:10.777Z,7.90
2019-01-13T22:45:58.706Z,7.90
2019-01-13T22:48:47.981Z,7.90
2019-01-13T22:51:35.612Z,7.90
2019-01-13T22:54:23.292Z,7.80
2019-01-13T23:01:04.081Z,7.80
2019-01-13T23:03:52.433Z,7.80
2019-01-13T23:06:40.564Z,7.80
2019-01-13T23:09:28.233Z,7.80
2019-01-13T23:12:15.848Z,7.80
2019-01-13T23:15:05.092Z,7.70
2019-01-13T23:17:53.101Z,7.60
2019-01-13T23:20:40.717Z,7.50
2019-01-13T23:23:28.653Z,7.20
2019-01-13T23:26:16.621Z,6.80
2019-01-13T23:29:05.076Z,6.60
2019-01-13T23:31:52.709Z,6.40
2019-01-13T23:34:40.362Z,6.30
2019-01-13T23:37:27.949Z,6.30
2019-01-13T23:40:16.090Z,6.30
2019-01-13T23:43:04.169Z,6.30
2019-01-13T23:45:52.106Z,6.40
2019-01-13T23:48:40.017Z,6.40
2019-01-13T23:51:27.922Z,6.50
2019-01-13T23:54:15.538Z,6.50
2019-01-13T23:57:03.466Z,6.50
